Maysville, West Virginia
Current Conditions -  °F | °C
As of 8:10 PM on Thursday 18 Dec 2014 (Local Time) from KW99 Reporting Station
Overcast Overcast  
Wind Chill: 28°   Ceiling: 8000
Heat Index: 32°   Visibility: 10mi
Dew Point: 21°   Wind: 5mph
Humidity: 64%   Direction: 110°ESE
Pressure: 30.12"   Gusts: NA
Location:  39.11°N, 79.16°W
Report Text: KW99 190110Z AUTO 11004KT 10SM SCT060 BKN080 OVC100 00/M06 A3012 RMK AO2 T00011060 PNO
Loading
Personal Weather Stations






























Interactive Weather Map New forecast layout! Learn more

10-Day Weather Forecast

Advertisements
Track Severe Weather on mobile